createdAt,value
2022-09-07T00:00:23.345Z,6.75
2022-09-07T00:02:50.184Z,6.53
2022-09-07T00:05:17.125Z,7.35
2022-09-07T00:07:43.942Z,6.63
2022-09-07T00:10:10.737Z,7.72
2022-09-07T00:12:37.810Z,9.10
2022-09-07T00:15:08.450Z,8.15
2022-09-07T00:17:36.299Z,6.43
2022-09-07T00:20:05.134Z,5.28
2022-09-07T00:22:32.361Z,6.43
2022-09-07T00:24:59.114Z,7.47
2022-09-07T00:27:26.104Z,6.75
2022-09-07T00:29:53.049Z,7.55
2022-09-07T00:32:19.882Z,7.55
2022-09-07T00:34:47.082Z,7.47
2022-09-07T00:37:13.991Z,10.00
2022-09-07T00:39:40.730Z,6.82
2022-09-07T00:42:07.560Z,10.70
2022-09-07T00:44:43.255Z,12.05
2022-09-07T00:47:17.926Z,11.43
2022-09-07T00:49:48.065Z,7.40
2022-09-07T00:52:17.080Z,10.00
2022-09-07T00:54:49.635Z,9.07
2022-09-07T00:57:16.933Z,12.02
2022-09-07T00:59:48.851Z,11.85
2022-09-07T01:02:19.411Z,14.18
2022-09-07T01:04:51.235Z,12.10
2022-09-07T01:07:19.190Z,15.35
2022-09-07T01:09:47.598Z,10.80
2022-09-07T01:12:14.786Z,10.35
2022-09-07T01:14:48.893Z,11.95
2022-09-07T01:17:47.034Z,9.10
2022-09-07T01:20:38.468Z,11.07
2022-09-07T01:23:42.667Z,14.02
2022-09-07T01:26:34.503Z,12.32
2022-09-07T01:29:11.915Z,13.02
2022-09-07T01:31:53.130Z,14.65
2022-09-07T01:34:25.938Z,14.70
2022-09-07T01:37:28.337Z,13.40
2022-09-07T01:40:07.028Z,16.58
2022-09-07T01:43:00.482Z,13.63
2022-09-07T01:45:31.646Z,14.73
2022-09-07T01:48:04.824Z,12.50
2022-09-07T01:50:53.077Z,14.38
2022-09-07T01:53:32.182Z,13.10
2022-09-07T01:56:05.145Z,14.20
2022-09-07T01:58:38.720Z,14.23
2022-09-07T02:01:11.086Z,15.90
2022-09-07T02:03:48.095Z,17.52
2022-09-07T02:06:22.467Z,13.57
2022-09-07T02:09:21.643Z,12.98
2022-09-07T02:11:50.231Z,13.57
2022-09-07T02:14:41.029Z,15.00
2022-09-07T02:17:22.576Z,16.55
2022-09-07T02:19:53.475Z,12.88
2022-09-07T02:22:30.122Z,16.25
2022-09-07T02:25:01.697Z,11.98
2022-09-07T02:27:36.039Z,13.75
2022-09-07T02:30:02.840Z,12.45
2022-09-07T02:32:29.552Z,13.30
2022-09-07T02:34:56.584Z,13.60
2022-09-07T02:37:25.526Z,13.07
2022-09-07T02:39:52.612Z,13.13
2022-09-07T02:42:19.406Z,16.42
2022-09-07T02:44:48.242Z,12.45
2022-09-07T02:47:32.168Z,14.38
2022-09-07T02:50:02.030Z,14.98
2022-09-07T02:52:43.910Z,15.27
2022-09-07T02:55:24.687Z,13.35
2022-09-07T02:57:59.605Z,13.18
2022-09-07T03:00:31.543Z,14.63
2022-09-07T03:03:08.444Z,12.75
2022-09-07T03:06:02.023Z,14.88
2022-09-07T03:08:44.294Z,11.80
2022-09-07T03:11:12.458Z,15.57
2022-09-07T03:13:39.316Z,15.13
2022-09-07T03:16:06.180Z,16.30
2022-09-07T03:18:33.063Z,12.90
2022-09-07T03:20:59.735Z,16.65
2022-09-07T03:23:26.401Z,17.38
2022-09-07T03:25:53.250Z,13.43
2022-09-07T03:28:20.117Z,13.60
2022-09-07T03:30:49.894Z,13.27
2022-09-07T03:33:17.382Z,15.15
2022-09-07T03:35:45.402Z,16.27
2022-09-07T03:38:12.732Z,12.90
2022-09-07T03:40:39.483Z,16.80
2022-09-07T03:43:06.281Z,14.32
2022-09-07T03:45:33.162Z,13.85
2022-09-07T03:48:00.092Z,12.13
2022-09-07T03:50:26.882Z,17.45
2022-09-07T03:52:53.660Z,13.38
2022-09-07T03:55:20.607Z,14.30
2022-09-07T03:57:47.326Z,14.77
2022-09-07T04:00:14.754Z,14.32
2022-09-07T04:02:42.139Z,14.02
2022-09-07T04:05:09.313Z,13.30
2022-09-07T04:07:36.254Z,15.18
2022-09-07T04:10:03.398Z,12.82
2022-09-07T04:12:30.230Z,18.55
2022-09-07T04:14:57.134Z,16.48
2022-09-07T04:17:25.003Z,13.73
2022-09-07T04:19:52.458Z,16.80
2022-09-07T04:22:21.281Z,14.07
2022-09-07T04:24:49.189Z,14.23
2022-09-07T04:27:15.974Z,17.00
2022-09-07T04:29:42.829Z,14.40
2022-09-07T04:32:12.392Z,14.38
2022-09-07T04:34:41.889Z,13.52
2022-09-07T04:37:08.867Z,15.20
2022-09-07T04:39:35.871Z,14.63
2022-09-07T04:42:02.791Z,15.27
2022-09-07T04:44:29.630Z,18.05
2022-09-07T04:46:56.520Z,15.02
2022-09-07T04:49:23.312Z,13.63
2022-09-07T04:51:50.052Z,17.15
2022-09-07T04:54:16.896Z,16.65
2022-09-07T04:56:43.666Z,13.88
2022-09-07T04:59:10.454Z,16.00
2022-09-07T05:01:37.451Z,15.05
2022-09-07T05:04:04.881Z,16.00
2022-09-07T05:06:32.947Z,14.82
2022-09-07T05:09:00.954Z,16.58
2022-09-07T05:11:29.741Z,13.70
2022-09-07T05:14:01.967Z,16.20
2022-09-07T05:16:30.479Z,17.40
2022-09-07T05:19:00.073Z,15.07
2022-09-07T05:21:29.302Z,15.23
2022-09-07T05:23:59.947Z,16.30
2022-09-07T05:26:30.077Z,18.70
2022-09-07T05:31:43.686Z,16.40
2022-09-07T05:36:58.610Z,13.75
2022-09-07T05:39:25.964Z,15.60
2022-09-07T05:41:52.716Z,14.57
2022-09-07T05:47:07.011Z,10.80
2022-09-07T05:49:33.783Z,10.20
2022-09-07T05:52:00.464Z,9.82
2022-09-07T05:54:27.165Z,10.77
2022-09-07T05:56:53.893Z,14.20
2022-09-07T05:59:20.879Z,12.48
2022-09-07T06:01:47.594Z,12.70
2022-09-07T06:04:14.522Z,9.63
2022-09-07T06:06:41.210Z,9.32
2022-09-07T06:09:08.182Z,9.35
2022-09-07T06:11:36.534Z,10.63
2022-09-07T06:14:04.466Z,11.18
2022-09-07T06:16:34.612Z,8.77
2022-09-07T06:19:06.420Z,14.50
2022-09-07T06:21:36.821Z,11.35
2022-09-07T06:24:04.464Z,10.75
2022-09-07T06:26:31.460Z,7.68
2022-09-07T06:28:59.530Z,7.60
2022-09-07T06:31:26.352Z,7.53
2022-09-07T06:33:55.053Z,7.63
2022-09-07T06:36:23.855Z,7.68
2022-09-07T06:38:51.642Z,9.82
2022-09-07T06:44:09.845Z,6.28
2022-09-07T06:49:25.315Z,6.10
2022-09-07T06:51:52.031Z,6.30
2022-09-07T06:57:09.542Z,5.63
2022-09-07T06:59:37.509Z,5.60
2022-09-07T07:02:05.881Z,6.30
2022-09-07T07:04:40.220Z,7.32
2022-09-07T07:07:14.551Z,5.28
2022-09-07T07:09:41.899Z,6.18
2022-09-07T07:12:10.274Z,6.35
2022-09-07T07:14:39.562Z,7.72
2022-09-07T07:17:08.909Z,8.00
2022-09-07T07:19:35.626Z,6.05
2022-09-07T07:22:14.296Z,7.13
2022-09-07T07:24:50.404Z,7.80
2022-09-07T07:27:18.298Z,9.00
2022-09-07T07:29:46.161Z,7.45
2022-09-07T07:32:15.202Z,8.20
2022-09-07T07:34:41.962Z,8.55
2022-09-07T07:37:08.601Z,8.73
2022-09-07T07:42:24.503Z,8.27
2022-09-07T07:47:39.956Z,12.63
2022-09-07T07:55:43.293Z,12.95
2022-09-07T07:58:10.387Z,13.60
2022-09-07T08:00:52.941Z,13.02
2022-09-07T08:03:22.694Z,12.45
2022-09-07T08:05:49.385Z,11.40
2022-09-07T08:08:16.211Z,14.73
2022-09-07T08:10:46.304Z,14.90
2022-09-07T08:13:14.230Z,14.65
2022-09-07T08:15:46.670Z,12.98
2022-09-07T08:18:15.738Z,13.25
2022-09-07T08:20:43.178Z,15.05
2022-09-07T08:23:10.322Z,14.20
2022-09-07T08:25:38.017Z,15.80
2022-09-07T08:28:05.520Z,14.10
2022-09-07T08:30:40.615Z,13.82
2022-09-07T08:33:07.319Z,14.55
2022-09-07T08:35:35.013Z,15.02
2022-09-07T08:38:01.696Z,15.98
2022-09-07T08:40:29.837Z,12.82
2022-09-07T08:43:14.689Z,14.27
2022-09-07T08:45:53.415Z,14.38
2022-09-07T08:48:29.210Z,15.65
2022-09-07T08:51:05.574Z,14.30
2022-09-07T08:53:32.562Z,15.90
2022-09-07T08:56:09.740Z,15.13
2022-09-07T08:58:49.139Z,14.27
2022-09-07T09:01:35.743Z,13.73
2022-09-07T09:04:20.669Z,16.27
2022-09-07T09:07:26.330Z,12.55
2022-09-07T09:10:11.167Z,13.52
2022-09-07T09:12:55.175Z,12.10
2022-09-07T09:15:32.527Z,15.23
2022-09-07T09:18:17.446Z,13.63
2022-09-07T09:20:52.398Z,16.10
2022-09-07T09:23:21.973Z,13.32
2022-09-07T09:25:59.042Z,15.27
2022-09-07T09:28:28.782Z,20.40
2022-09-07T09:30:57.079Z,21.75
2022-09-07T09:33:29.102Z,21.00
2022-09-07T09:35:59.254Z,17.88
2022-09-07T09:38:43.647Z,16.50
2022-09-07T09:41:12.549Z,17.58
2022-09-07T09:43:41.837Z,19.52
2022-09-07T09:46:37.298Z,22.13
2022-09-07T09:49:14.344Z,17.17
2022-09-07T09:54:43.419Z,14.90
2022-09-07T09:57:17.772Z,11.95
2022-09-07T10:00:03.001Z,10.40
2022-09-07T10:05:26.637Z,10.68
2022-09-07T10:07:53.913Z,8.95
2022-09-07T10:10:21.082Z,8.82
2022-09-07T10:12:54.157Z,9.02
2022-09-07T10:15:40.013Z,8.63
2022-09-07T10:18:09.943Z,9.13
2022-09-07T10:20:38.770Z,10.25
2022-09-07T10:23:06.897Z,9.48
2022-09-07T10:25:39.800Z,11.02
2022-09-07T10:28:12.832Z,10.60
2022-09-07T10:30:42.125Z,12.13
2022-09-07T10:36:43.620Z,11.68
2022-09-07T10:39:22.718Z,12.93
2022-09-07T10:42:04.352Z,13.48
2022-09-07T10:44:38.146Z,13.27
2022-09-07T10:47:34.405Z,13.00
2022-09-07T10:50:23.720Z,14.75
2022-09-07T10:53:23.428Z,11.63
2022-09-07T10:56:10.510Z,14.95
2022-09-07T11:02:23.189Z,13.55
2022-09-07T11:04:55.970Z,11.48
2022-09-07T11:07:48.415Z,12.57
2022-09-07T11:10:40.207Z,10.57
2022-09-07T11:13:13.643Z,10.80
2022-09-07T11:15:45.906Z,8.98
2022-09-07T11:18:22.655Z,11.10
2022-09-07T11:20:59.105Z,9.43
2022-09-07T11:23:59.378Z,9.05
2022-09-07T11:26:26.102Z,11.10
2022-09-07T11:29:34.718Z,10.23
2022-09-07T11:32:30.174Z,9.48
2022-09-07T11:35:12.060Z,13.10
2022-09-07T11:37:42.451Z,10.18
2022-09-07T11:40:30.894Z,11.45
2022-09-07T11:43:08.065Z,10.93
2022-09-07T11:45:48.194Z,11.40
2022-09-07T11:48:22.339Z,10.80
2022-09-07T11:50:57.530Z,12.63
2022-09-07T11:53:27.975Z,12.52
2022-09-07T11:55:59.299Z,10.40
2022-09-07T11:58:48.819Z,12.82
2022-09-07T12:01:41.209Z,11.43
2022-09-07T12:04:46.761Z,10.85
2022-09-07T12:07:32.785Z,11.05
2022-09-07T12:10:21.163Z,13.85
2022-09-07T12:13:26.366Z,9.68
2022-09-07T12:16:07.382Z,10.77
2022-09-07T12:18:58.333Z,9.63
2022-09-07T12:21:38.278Z,10.43
2022-09-07T12:24:05.306Z,9.00
2022-09-07T12:26:35.557Z,11.75
2022-09-07T12:29:05.832Z,8.50
2022-09-07T12:31:58.683Z,7.55
2022-09-07T12:34:32.449Z,8.35
2022-09-07T12:37:00.103Z,9.73
2022-09-07T12:39:30.643Z,12.45
2022-09-07T12:45:28.497Z,7.18
2022-09-07T12:48:15.585Z,7.78
2022-09-07T12:51:59.598Z,7.70
2022-09-07T12:54:06.796Z,7.70
2022-09-07T12:57:28.675Z,8.38
2022-09-07T12:59:52.034Z,7.07
2022-09-07T13:02:33.818Z,7.25
2022-09-07T13:05:15.722Z,7.82
2022-09-07T13:08:13.402Z,9.13
2022-09-07T13:10:42.596Z,8.38
2022-09-07T13:16:30.674Z,7.85
2022-09-07T13:19:01.883Z,7.07
2022-09-07T13:21:49.003Z,8.07
2022-09-07T13:27:25.138Z,8.32
2022-09-07T13:30:02.010Z,10.45
2022-09-07T13:35:25.439Z,7.97
2022-09-07T13:37:59.164Z,7.50
2022-09-07T13:40:30.381Z,8.38
2022-09-07T13:43:00.311Z,9.95
2022-09-07T13:45:45.695Z,8.35
2022-09-07T13:48:25.441Z,9.23
2022-09-07T13:51:00.196Z,9.35
2022-09-07T13:56:27.550Z,7.75
2022-09-07T13:58:55.494Z,8.77
2022-09-07T14:01:25.710Z,9.50
2022-09-07T14:03:57.153Z,9.30
2022-09-07T14:06:30.387Z,8.68
2022-09-07T14:09:18.980Z,8.85
2022-09-07T14:11:52.622Z,10.18
2022-09-07T14:14:20.890Z,9.75
2022-09-07T14:17:02.634Z,8.63
2022-09-07T14:19:40.970Z,12.48
2022-09-07T14:22:17.970Z,8.63
2022-09-07T14:24:53.836Z,10.80
2022-09-07T14:27:45.731Z,9.25
2022-09-07T14:30:19.131Z,9.25
2022-09-07T14:32:53.257Z,8.85
2022-09-07T14:35:26.887Z,11.17
2022-09-07T14:37:55.006Z,8.90
2022-09-07T14:40:26.391Z,11.55
2022-09-07T14:42:55.569Z,8.52
2022-09-07T14:45:22.133Z,10.02
2022-09-07T14:47:52.642Z,8.10
2022-09-07T14:50:23.941Z,7.53
2022-09-07T14:55:42.058Z,7.22
2022-09-07T14:58:14.094Z,7.10
2022-09-07T15:03:43.638Z,7.25
2022-09-07T15:07:01.047Z,7.65
2022-09-07T15:08:59.810Z,8.15
2022-09-07T15:11:36.445Z,7.88
2022-09-07T15:14:20.775Z,9.40
2022-09-07T15:19:50.352Z,8.07
2022-09-07T15:22:18.834Z,9.50
2022-09-07T15:24:51.130Z,9.50
2022-09-07T15:27:20.694Z,8.25
2022-09-07T15:29:47.567Z,9.40
2022-09-07T15:32:16.703Z,8.80
2022-09-07T15:34:45.125Z,9.10
2022-09-07T15:39:59.313Z,9.27
2022-09-07T15:45:18.717Z,8.63
2022-09-07T15:47:52.093Z,8.38
2022-09-07T15:50:23.201Z,9.75
2022-09-07T15:52:50.542Z,12.15
2022-09-07T15:55:17.877Z,9.90
2022-09-07T15:57:49.224Z,8.32
2022-09-07T16:00:18.438Z,10.25
2022-09-07T16:03:05.005Z,9.35
2022-09-07T16:05:33.435Z,9.35
2022-09-07T16:11:04.665Z,9.15
2022-09-07T16:13:32.691Z,11.18
2022-09-07T16:16:00.518Z,8.38
2022-09-07T16:18:31.166Z,9.77
2022-09-07T16:21:04.897Z,8.90
2022-09-07T16:23:31.686Z,10.70
2022-09-07T16:26:00.829Z,8.05
2022-09-07T16:28:28.479Z,9.55
2022-09-07T16:30:56.223Z,9.20
2022-09-07T16:33:31.261Z,10.07
2022-09-07T16:36:06.334Z,12.40
2022-09-07T16:38:48.718Z,10.50
2022-09-07T16:41:21.085Z,11.00
2022-09-07T16:43:48.987Z,9.73
2022-09-07T16:46:18.132Z,11.70
2022-09-07T16:48:44.913Z,9.40
2022-09-07T16:51:13.593Z,10.07
2022-09-07T16:53:40.593Z,10.63
2022-09-07T16:56:09.873Z,12.30
2022-09-07T16:58:40.312Z,9.77
2022-09-07T17:01:08.639Z,8.15
2022-09-07T17:03:39.680Z,9.15
2022-09-07T17:06:08.543Z,8.93
2022-09-07T17:08:36.884Z,12.32
2022-09-07T17:11:06.823Z,8.07
2022-09-07T17:13:36.879Z,9.13
2022-09-07T17:16:11.378Z,9.93
2022-09-07T17:21:28.510Z,12.95
2022-09-07T17:23:56.011Z,12.27
2022-09-07T17:26:26.719Z,9.50
2022-09-07T17:29:00.104Z,9.23
2022-09-07T17:34:19.869Z,8.63
2022-09-07T17:36:47.197Z,9.68
2022-09-07T17:39:16.680Z,10.02
2022-09-07T17:41:44.860Z,11.30
2022-09-07T17:44:11.534Z,10.60
2022-09-07T17:46:40.261Z,10.30
2022-09-07T17:49:11.289Z,9.13
2022-09-07T17:51:38.465Z,9.25
2022-09-07T17:54:10.900Z,10.18
2022-09-07T17:56:40.511Z,10.10
2022-09-07T18:01:55.191Z,8.80
2022-09-07T18:04:22.918Z,8.70
2022-09-07T18:06:50.158Z,8.32
2022-09-07T18:09:17.542Z,7.00
2022-09-07T18:11:46.860Z,13.20
2022-09-07T18:14:14.806Z,7.80
2022-09-07T18:16:42.622Z,7.72
2022-09-07T18:19:11.567Z,7.10
2022-09-07T18:21:42.630Z,9.93
2022-09-07T18:24:21.686Z,7.90
2022-09-07T18:26:51.230Z,9.45
2022-09-07T18:29:30.010Z,8.38
2022-09-07T18:32:00.305Z,9.25
2022-09-07T18:34:29.050Z,8.75
2022-09-07T18:36:58.660Z,6.93
2022-09-07T18:39:26.644Z,10.05
2022-09-07T18:41:56.323Z,8.48
2022-09-07T18:47:22.354Z,9.07
2022-09-07T18:49:54.912Z,10.27
2022-09-07T18:55:17.120Z,7.47
2022-09-07T18:57:45.839Z,8.88
2022-09-07T19:00:14.439Z,10.75
2022-09-07T19:02:41.502Z,12.70
2022-09-07T19:07:56.242Z,10.60
2022-09-07T19:10:24.032Z,9.00
2022-09-07T19:12:51.871Z,10.90
2022-09-07T19:15:20.586Z,12.45
2022-09-07T19:17:47.367Z,13.20
2022-09-07T19:20:14.036Z,13.02
2022-09-07T19:22:42.875Z,10.52
2022-09-07T19:25:10.335Z,9.93
2022-09-07T19:27:37.078Z,9.50
2022-09-07T19:30:04.154Z,9.05
2022-09-07T19:32:36.289Z,9.82
2022-09-07T19:35:09.628Z,11.63
2022-09-07T19:37:36.426Z,11.48
2022-09-07T19:40:04.641Z,9.20
2022-09-07T19:42:32.470Z,11.52
2022-09-07T19:44:59.560Z,11.82
2022-09-07T19:47:29.393Z,10.50
2022-09-07T19:49:56.218Z,12.43
2022-09-07T19:52:23.425Z,12.98
2022-09-07T19:54:50.523Z,11.88
2022-09-07T19:57:17.364Z,12.07
2022-09-07T19:59:45.741Z,12.50
2022-09-07T20:02:15.090Z,12.45
2022-09-07T20:04:41.789Z,12.02
2022-09-07T20:07:11.866Z,10.18
2022-09-07T20:09:38.491Z,10.65
2022-09-07T20:12:14.510Z,13.27
2022-09-07T20:14:42.198Z,10.93
2022-09-07T20:17:11.318Z,11.13
2022-09-07T20:19:38.085Z,12.65
2022-09-07T20:22:04.816Z,16.52
2022-09-07T20:24:34.185Z,11.52
2022-09-07T20:27:02.972Z,12.32
2022-09-07T20:29:31.649Z,13.00
2022-09-07T20:32:04.423Z,12.93
2022-09-07T20:34:33.592Z,11.52
2022-09-07T20:37:00.999Z,11.55
2022-09-07T20:39:30.114Z,12.00
2022-09-07T20:41:57.823Z,12.77
2022-09-07T20:44:25.487Z,12.38
2022-09-07T20:46:52.387Z,12.70
2022-09-07T20:49:20.208Z,10.23
2022-09-07T20:51:48.870Z,12.20
2022-09-07T20:54:21.618Z,11.90
2022-09-07T20:56:49.254Z,10.60
2022-09-07T20:59:15.968Z,13.80
2022-09-07T21:01:42.661Z,11.25
2022-09-07T21:04:19.634Z,14.10
2022-09-07T21:06:47.504Z,13.75
2022-09-07T21:09:15.166Z,11.38
2022-09-07T21:11:45.033Z,13.45
2022-09-07T21:14:15.010Z,14.80
2022-09-07T21:16:44.876Z,12.77
2022-09-07T21:19:11.578Z,12.15
2022-09-07T21:21:41.582Z,12.00
2022-09-07T21:24:21.812Z,10.63
2022-09-07T21:26:49.814Z,10.88
2022-09-07T21:29:23.385Z,11.40
2022-09-07T21:31:52.302Z,12.27
2022-09-07T21:34:26.068Z,11.32
2022-09-07T21:36:52.888Z,11.52
2022-09-07T21:39:20.817Z,10.68
2022-09-07T21:41:47.640Z,12.05
2022-09-07T21:44:16.157Z,14.27
2022-09-07T21:46:43.835Z,12.18
2022-09-07T21:49:11.234Z,13.10
2022-09-07T21:51:43.930Z,13.60
2022-09-07T21:54:17.705Z,11.70
2022-09-07T21:56:46.681Z,14.63
2022-09-07T21:59:13.856Z,15.20
2022-09-07T22:01:42.630Z,12.60
2022-09-07T22:04:09.412Z,13.90
2022-09-07T22:06:36.524Z,14.90
2022-09-07T22:09:05.674Z,14.80
2022-09-07T22:11:33.681Z,15.63
2022-09-07T22:14:03.069Z,12.13
2022-09-07T22:16:33.878Z,12.68
2022-09-07T22:19:01.066Z,12.68
2022-09-07T22:21:28.966Z,13.90
2022-09-07T22:23:58.482Z,14.88
2022-09-07T22:26:28.982Z,15.73
2022-09-07T22:28:55.998Z,14.10
2022-09-07T22:31:30.099Z,14.75
2022-09-07T22:33:58.768Z,14.95
2022-09-07T22:36:30.601Z,15.30
2022-09-07T22:38:59.233Z,12.80
2022-09-07T22:41:34.564Z,15.25
2022-09-07T22:44:10.350Z,16.25
2022-09-07T22:46:43.995Z,13.75
2022-09-07T22:49:17.286Z,14.25
2022-09-07T22:51:44.861Z,15.32
2022-09-07T22:54:19.597Z,14.65
2022-09-07T22:56:49.429Z,16.03
2022-09-07T22:59:18.185Z,12.95
2022-09-07T23:01:45.026Z,15.45
2022-09-07T23:04:15.233Z,15.00
2022-09-07T23:06:43.423Z,15.43
2022-09-07T23:09:13.196Z,17.20
2022-09-07T23:11:40.597Z,14.82
2022-09-07T23:14:12.931Z,14.30
2022-09-07T23:16:42.762Z,13.25
2022-09-07T23:19:17.820Z,13.80
2022-09-07T23:21:44.701Z,17.45
2022-09-07T23:24:17.886Z,13.60
2022-09-07T23:26:45.157Z,13.93
2022-09-07T23:29:13.425Z,15.75
2022-09-07T23:31:42.524Z,14.93
2022-09-07T23:34:09.506Z,13.93
2022-09-07T23:36:42.047Z,15.02
2022-09-07T23:39:16.476Z,15.82
2022-09-07T23:41:52.430Z,13.82
2022-09-07T23:44:19.106Z,15.38
2022-09-07T23:46:45.767Z,17.42
2022-09-07T23:49:12.453Z,13.20
2022-09-07T23:51:47.618Z,14.90
2022-09-07T23:54:14.380Z,14.40
2022-09-07T23:56:41.009Z,11.57
2022-09-07T23:59:09.119Z,15.65
